Aktualne dane pomiarowe

Uwaga, wersja testowa! Automatyczne pobieranie danych za pomocą narzędzi lub skryptów to umożliwiających jest zabronione.

Dane meteo z obszaru Polski uzyskane na podstawie depesz SYNOP pobieranych co godzinę z NWS. Najedź myszką na symbol przedstawiony w tabeli, aby uzyskać informacje co do jego znaczenia. Prosimy pamiętać, że to testowa wersja strony, która jeszcze nie jest ukończona. Stworzono również jest krótki FAQ dotyczący korzystania z tej podstrony Anomalie temperatury w chwili obecnej odniesione są do okresu referencyjnego 1951-2016. Okres ten będzie później zmieniony na 1981-2010. Kliknij ikonę aby pobrać plik CSV. Kliknij ikonę aby wygenerować mapę synoptyczną dla danego terminu.

Wybierz Datę:    

        

Lesko (12690)

Dane terminowe dla wybranej stacji. Kliknij datę, aby otrzymać dane z tego terminu dla wszystkich stacji.

TemperaturaZachmurzenieWiatrCiśnienieOpadyPogoda
 Data t td wb tx tn tg rh  Nt Nl Cl Cm Ch ws wd g1 g2 wx mslp ppp ch 24h 12h t ww ww w1 w2  
2019-08-09 23:00:00 15.2 12.9 13.6--- 8635.0wx-wx3wx--31015.9 966.4 0.0----22----
2019-08-09 22:00:00 16.4 13.5 14.4--- 8335.0wx-wx2wx--21016.1 966.8 0.6----22----
2019-08-09 21:00:00 17.4 13.5 14.8--- 7835.0wx-wx2wx---1015.6 966.5 0.7---------
2019-08-09 20:00:00 18.5 13.1 15.0--- 7135.0wx-wxwx2wx--21015.4 966.4 1.1---------
2019-08-09 19:00:00 19.5 13.2 15.4--- 6735.0wxwxwxwxwx2wx--21015.0 966.2 1.1---------
2019-08-09 18:00:00 21.6 12.7 16.0 26.3 16.3- 5735.0wxwxwxwxwx1wx-811014.2 965.8 0.8- 0.012------
2019-08-09 17:00:00 24.4 11.7 16.7--- 4535.0wxwxwxwxwx1wx---1013.2 965.3 0.3---------
2019-08-09 16:00:00 24.6 10.8 16.4--- 4235.0wxwxwxwx3wx---1013.0 965.1 0.0---------
2019-08-09 15:00:00 26.2 11.1 17.2--- 3935.0wxwxwx2wx-821012.6 965.0 -0.5---------
2019-08-09 14:00:00 25.7 10.7 16.8--- 3935.0wxwxwxwx3wx-831012.7 965.0 -0.7---------
2019-08-09 13:00:00 25.6 10.6 16.7--- 3935.0wxwxwxwxwx3wx8831012.8 965.1 -0.9---------
2019-08-09 12:00:00 25.3 10.7 16.6--- 4035.0wxwxwxwx4wx--41013.3 965.5 -0.7- 0.06------
2019-08-09 11:00:00 24.9 10.7 16.5--- 4135.0wxwxwxwx4wx---1013.5 965.7 -0.5---------
2019-08-09 10:00:00 24.1 13.0 17.2--- 5035.0wxwxwxwx3wx--31014.0 966.0 -0.4---------
2019-08-09 09:00:00 23.2 13.7 17.2--- 5535.0wxwxwx2wx--21014.3 966.2 -0.2---------
2019-08-09 08:00:00 21.9 13.3 16.5--- 5835.0wxwxwx1wx--11014.6 966.2 0.0----22----
2019-08-09 07:00:00 18.9 14.4 15.9--- 7535.0wxwxwxwx1wx--11015.3 966.4 0.6----22----
2019-08-09 06:00:00 16.3 14.0 14.7 19.8 13.6 13 8635.0wxwxwxwx1wx--11015.7 966.4 0.5- 0.012-22--- 5.9
2019-08-09 05:00:00 14.9 13.4 13.8--- 9128.0wxwxwxwx1wx--11015.8 966.2 0.6----22----
2019-08-09 04:00:00 14.5 13.4 13.7--- 9322.0wxwxwxwx2wx--21015.4 965.8 0.1----22----
2019-08-09 03:00:00 14.2 13.2 13.5--- 9415.0wxwxwxwx2wx--21015.6 965.9 0.0----22----
2019-08-09 02:00:00 14.2 13.1 13.4--- 9318.0wxwxwxwx2wx--21015.3 965.6 -0.2----22----
2019-08-09 01:00:00 14.6 13.3 13.7--- 9217.0wxwxwx1wx---1015.3 965.7 0.0---------
2019-08-09 00:00:00 14.6 13.5 13.8--- 9314.0wxwxwx1wx--11015.5 965.9 0.2- 0.06-22----
2019-08-08 23:00:00 14.9 13.6 14.0--- 9216.0wx-wx2wx--21015.3 965.8 0.4----22----
2019-08-08 22:00:00 15.1 13.5 14.0--- 9019.0wx-wx2wx--21015.2 965.7 0.6----22----
2019-08-08 21:00:00 15.9 13.6 14.3--- 8625.0wx-wxwx1wx--11015.1 965.7 1.2----22----
2019-08-08 20:00:00 16.6 13.1 14.2--- 8030.0wx-wx1wx---1014.6 965.4 1.1---------
2019-08-08 19:00:00 18.1 13.2 14.9--- 7320.0wx-wx2wx--21014.1 965.1 0.8---------
2019-08-08 18:00:00 19.8 13.3 15.6 24.2 18.7- 6635.0wxwxwxwx1wx--11013.1 964.5 0.0- 0.012------
2019-08-08 17:00:00 21.8 13.2 16.4--- 5835.0wx-wx1wx--11012.6 964.3 0.1---------
2019-08-08 16:00:00 22.9 11.9 16.2--- 5035.0wxwxwxwx3wx---1012.4 964.3 0.2---------
2019-08-08 15:00:00 23.9 13.1 17.2--- 5135.0wxwxwxwxwx3wx---1012.4 964.5 0.1---------
2019-08-08 14:00:00 24.1 13.0 17.2--- 5035.0wxwxwxwxwx3wx--31012.1 964.2 -0.3---------
2019-08-08 13:00:00 23.2 13.9 17.3--- 5635.0wxwxwxwx2wx--21012.1 964.1 0.2---------
2019-08-08 12:00:00 22.5 14.3 17.2--- 6035.0wxwxwxwx3wx-1331012.6 964.4 1.1- 0.06------
2019-08-08 11:00:00 20.8 14.7 16.8--- 6835.0wxwxwx3wx--31013.0 964.5 1.6---------
2019-08-08 10:00:00 20.6 14.5 16.6--- 6835.0wxwxwxwx4wx-941012.4 963.9 1.7---------
2019-08-08 09:00:00 19.9 14.7 16.4--- 7235.0wxwxwxwx5wx-1351011.9 963.3 1.8---------
2019-08-08 08:00:00 19.7 15.1 16.6--- 7535.0wxwxwxwx5wx-1051011.5 962.9 2.3---------
2019-08-08 07:00:00 19.1 14.8 16.2--- 7635.0wxwxwxwx6wx131361010.8 962.2 2.2---------
2019-08-08 06:00:00 19.1 16.1 17.0 22.4 17.9 18 8335.0wxwxwx3wx-931010.1 961.5 3.2 1.7 2.012wx-w1w2- 8.5
2019-08-08 05:00:00 18.3 16.8 17.2--- 9135.0wxwxwxwx2wx---1009.3 960.6 2.3---------
2019-08-08 04:00:00 18.0 16.5 16.9--- 9135.0wxwxwx1wx---1008.7 960.0 0.4---------
2019-08-08 03:00:00 20.1 17.3 18.1--- 8435.0wxwxwx4wx--41006.6 958.3 -1.0---wx-w1--
2019-08-08 02:00:00 19.6 17.6 18.2--- 8827.0wxwxwx3wx--31006.7 958.3 -0.8---wx-w1w2--
2019-08-08 01:00:00 22.2 16.9 18.6--- 7235.0wxwxwxwxwx4wx--41007.6 959.6 -0.1---wx---
2019-08-08 00:00:00 21.5 17.3 18.6--- 7735.0wx-wxwx3wx-831007.4 959.3 -0.4- 0.06------
38.5 ms

 

Print Friendly, PDF & Email